createdAt,value
2017-02-10T00:00:43.680Z,0
2017-02-10T00:01:54.349Z,0
2017-02-10T00:03:05.115Z,0
2017-02-10T00:04:15.785Z,0
2017-02-10T00:05:26.447Z,0
2017-02-10T00:06:37.115Z,0
2017-02-10T00:07:47.782Z,0
2017-02-10T00:08:58.549Z,0
2017-02-10T00:10:09.213Z,0
2017-02-10T00:11:19.483Z,0
2017-02-10T00:12:30.150Z,0
2017-02-10T00:13:40.821Z,0
2017-02-10T00:14:51.484Z,0
2017-02-10T00:16:02.146Z,0
2017-02-10T00:17:12.421Z,0
2017-02-10T00:18:23.094Z,0
2017-02-10T00:19:33.761Z,0
2017-02-10T00:20:44.422Z,0
2017-02-10T00:21:55.093Z,0
2017-02-10T00:23:05.758Z,0
2017-02-10T00:24:16.029Z,0
2017-02-10T00:25:26.693Z,0
2017-02-10T00:26:37.365Z,0
2017-02-10T00:27:48.034Z,0
2017-02-10T00:28:58.699Z,0
2017-02-10T00:30:09.368Z,0
2017-02-10T00:31:20.050Z,0
2017-02-10T00:32:30.714Z,0
2017-02-10T00:33:41.381Z,0
2017-02-10T00:34:52.047Z,0
2017-02-10T00:36:02.712Z,0
2017-02-10T00:37:13.379Z,0
2017-02-10T00:38:24.082Z,0
2017-02-10T00:39:34.751Z,0
2017-02-10T00:40:45.413Z,0
2017-02-10T00:41:56.077Z,0
2017-02-10T00:43:06.345Z,0
2017-02-10T00:44:17.018Z,0
2017-02-10T00:45:27.711Z,0
2017-02-10T00:46:38.375Z,0
2017-02-10T00:47:48.647Z,0
2017-02-10T00:48:59.320Z,0
2017-02-10T00:50:09.985Z,0
2017-02-10T00:51:20.253Z,0
2017-02-10T00:52:30.916Z,0
2017-02-10T00:53:41.586Z,0
2017-02-10T00:54:52.271Z,0
2017-02-10T00:56:02.946Z,0
2017-02-10T00:57:13.606Z,0
2017-02-10T00:58:24.279Z,0
2017-02-10T00:59:34.979Z,0
2017-02-10T01:00:45.648Z,0
2017-02-10T01:01:56.328Z,0
2017-02-10T01:03:06.997Z,0
2017-02-10T01:04:17.264Z,0
2017-02-10T01:05:27.929Z,0
2017-02-10T01:06:38.595Z,0
2017-02-10T01:07:49.259Z,0
2017-02-10T01:08:59.930Z,0
2017-02-10T01:10:10.596Z,0
2017-02-10T01:11:20.872Z,0
2017-02-10T01:12:31.536Z,0
2017-02-10T01:13:42.203Z,0
2017-02-10T01:14:52.871Z,0
2017-02-10T01:16:03.541Z,0
2017-02-10T01:17:13.818Z,0
2017-02-10T01:18:24.489Z,0
2017-02-10T01:19:35.151Z,0
2017-02-10T01:20:45.813Z,0
2017-02-10T01:21:56.480Z,0
2017-02-10T01:23:06.750Z,0
2017-02-10T01:24:17.419Z,0
2017-02-10T01:25:28.091Z,0
2017-02-10T01:26:38.759Z,0
2017-02-10T01:27:49.421Z,0
2017-02-10T01:29:00.087Z,0
2017-02-10T01:30:10.751Z,0
2017-02-10T01:31:21.416Z,0
2017-02-10T01:32:32.084Z,0
2017-02-10T01:33:42.746Z,0
2017-02-10T01:34:53.413Z,0
2017-02-10T01:36:04.079Z,0
2017-02-10T01:37:14.746Z,0
2017-02-10T01:38:25.409Z,0
2017-02-10T01:39:36.072Z,0
2017-02-10T01:40:46.739Z,0
2017-02-10T01:41:57.005Z,0
2017-02-10T01:43:07.668Z,0
2017-02-10T01:44:17.935Z,0
2017-02-10T01:45:28.603Z,0
2017-02-10T01:46:39.267Z,0
2017-02-10T01:47:49.930Z,0
2017-02-10T01:49:00.589Z,0
2017-02-10T01:50:11.257Z,0
2017-02-10T01:51:21.524Z,0
2017-02-10T01:52:32.189Z,0
2017-02-10T01:53:42.853Z,0
2017-02-10T01:54:53.522Z,0
2017-02-10T01:56:04.186Z,0
2017-02-10T01:57:14.852Z,0
2017-02-10T01:58:25.534Z,0
2017-02-10T01:59:36.197Z,0
2017-02-10T02:00:46.860Z,0
2017-02-10T02:01:57.526Z,0
2017-02-10T02:03:08.186Z,0
2017-02-10T02:04:18.850Z,0
2017-02-10T02:05:29.511Z,0
2017-02-10T02:06:40.179Z,0
2017-02-10T02:07:50.853Z,0
2017-02-10T02:09:01.521Z,0
2017-02-10T02:10:12.184Z,0
2017-02-10T02:11:22.862Z,0
2017-02-10T02:12:33.527Z,0
2017-02-10T02:13:44.193Z,0
2017-02-10T02:14:54.457Z,0
2017-02-10T02:16:05.158Z,0
2017-02-10T02:17:15.033Z,0
2017-02-10T02:18:25.697Z,0
2017-02-10T02:19:36.361Z,0
2017-02-10T02:20:47.022Z,0
2017-02-10T02:21:57.686Z,0
2017-02-10T02:23:07.953Z,0
2017-02-10T02:24:17.828Z,0
2017-02-10T02:25:28.492Z,0
2017-02-10T02:26:39.161Z,0
2017-02-10T02:27:49.829Z,0
2017-02-10T02:29:00.496Z,0
2017-02-10T02:30:10.770Z,0
2017-02-10T02:31:20.643Z,0
2017-02-10T02:32:31.315Z,0
2017-02-10T02:33:41.978Z,0
2017-02-10T02:34:52.645Z,0
2017-02-10T02:36:03.308Z,0
2017-02-10T02:37:13.567Z,0
2017-02-10T02:38:23.840Z,0
2017-02-10T02:39:34.507Z,0
2017-02-10T02:40:45.173Z,0
2017-02-10T02:41:55.042Z,0
2017-02-10T02:43:05.308Z,0
2017-02-10T02:44:15.575Z,0
2017-02-10T02:45:26.238Z,0
2017-02-10T02:46:36.905Z,0
2017-02-10T02:47:47.603Z,0
2017-02-10T02:48:58.308Z,0
2017-02-10T02:50:08.578Z,0
2017-02-10T02:51:19.248Z,0
2017-02-10T02:52:29.946Z,0
2017-02-10T02:53:40.610Z,0
2017-02-10T02:54:51.270Z,0
2017-02-10T02:56:01.948Z,0
2017-02-10T02:57:12.213Z,0
2017-02-10T02:58:22.880Z,0
2017-02-10T02:59:33.538Z,0
2017-02-10T03:00:44.206Z,0
2017-02-10T03:01:54.873Z,0
2017-02-10T03:03:05.154Z,0
2017-02-10T03:04:15.851Z,0
2017-02-10T03:05:26.518Z,0
2017-02-10T03:06:37.179Z,0
2017-02-10T03:07:47.859Z,0
2017-02-10T03:08:58.536Z,0
2017-02-10T03:10:09.204Z,0
2017-02-10T03:11:19.870Z,0
2017-02-10T03:12:30.540Z,0
2017-02-10T03:13:41.213Z,0
2017-02-10T03:14:51.889Z,0
2017-02-10T03:16:02.553Z,0
2017-02-10T03:17:12.425Z,0
2017-02-10T03:18:23.092Z,0
2017-02-10T03:19:33.755Z,0
2017-02-10T03:20:44.416Z,0
2017-02-10T03:21:55.076Z,0
2017-02-10T03:23:05.739Z,0
2017-02-10T03:24:16.016Z,0
2017-02-10T03:25:26.674Z,0
2017-02-10T03:26:37.342Z,0
2017-02-10T03:27:48.009Z,0
2017-02-10T03:28:58.672Z,0
2017-02-10T03:30:09.338Z,0
2017-02-10T03:31:19.610Z,0
2017-02-10T03:32:30.274Z,0
2017-02-10T03:33:40.937Z,0
2017-02-10T03:34:51.605Z,0
2017-02-10T03:36:02.272Z,0
2017-02-10T03:37:12.940Z,0
2017-02-10T03:38:23.217Z,0
2017-02-10T03:39:33.886Z,0
2017-02-10T03:40:44.553Z,0
2017-02-10T03:41:55.220Z,0
2017-02-10T03:43:05.881Z,0
2017-02-10T03:44:16.547Z,0
2017-02-10T03:45:27.209Z,0
2017-02-10T03:46:37.908Z,0
2017-02-10T03:47:48.575Z,0
2017-02-10T03:48:59.236Z,0
2017-02-10T03:50:09.502Z,0
2017-02-10T03:51:20.167Z,0
2017-02-10T03:52:30.832Z,0
2017-02-10T03:53:41.495Z,0
2017-02-10T03:54:52.167Z,0
2017-02-10T03:56:02.441Z,0
2017-02-10T03:57:13.105Z,0
2017-02-10T03:58:23.774Z,0
2017-02-10T03:59:34.439Z,0
2017-02-10T04:00:45.100Z,0
2017-02-10T04:01:55.765Z,0
2017-02-10T04:03:06.431Z,0
2017-02-10T04:04:16.301Z,0
2017-02-10T04:05:26.967Z,0
2017-02-10T04:06:37.630Z,0
2017-02-10T04:07:48.294Z,0
2017-02-10T04:08:58.557Z,0
2017-02-10T04:10:08.827Z,0
2017-02-10T04:11:19.491Z,0
2017-02-10T04:12:30.158Z,0
2017-02-10T04:13:40.822Z,0
2017-02-10T04:14:51.489Z,0
2017-02-10T04:16:02.150Z,0
2017-02-10T04:17:12.810Z,0
2017-02-10T04:18:23.475Z,0
2017-02-10T04:19:34.140Z,0
2017-02-10T04:20:44.804Z,0
2017-02-10T04:21:55.466Z,0
2017-02-10T04:23:06.134Z,0
2017-02-10T04:24:16.796Z,0
2017-02-10T04:25:27.457Z,0
2017-02-10T04:26:38.125Z,0
2017-02-10T04:27:48.792Z,0
2017-02-10T04:28:59.456Z,0
2017-02-10T04:30:10.123Z,0
2017-02-10T04:31:20.394Z,0
2017-02-10T04:32:31.057Z,0
2017-02-10T04:33:41.721Z,0
2017-02-10T04:34:52.394Z,0
2017-02-10T04:36:03.060Z,0
2017-02-10T04:37:13.734Z,0
2017-02-10T04:38:24.413Z,0
2017-02-10T04:39:35.075Z,0
2017-02-10T04:40:45.739Z,0
2017-02-10T04:41:56.408Z,0
2017-02-10T04:43:07.066Z,0
2017-02-10T04:44:16.969Z,0
2017-02-10T04:45:27.637Z,0
2017-02-10T04:46:38.302Z,0
2017-02-10T04:47:48.968Z,0
2017-02-10T04:48:59.240Z,0
2017-02-10T04:50:09.909Z,0
2017-02-10T04:51:20.183Z,0
2017-02-10T04:52:30.894Z,0
2017-02-10T04:53:41.560Z,0
2017-02-10T04:54:52.220Z,0
2017-02-10T04:56:02.885Z,0
2017-02-10T04:57:13.552Z,0
2017-02-10T04:58:24.215Z,0
2017-02-10T04:59:34.875Z,0
2017-02-10T05:00:45.541Z,0
2017-02-10T05:01:56.211Z,0
2017-02-10T05:03:06.875Z,0
2017-02-10T05:04:17.546Z,0
2017-02-10T05:05:28.208Z,0
2017-02-10T05:06:38.872Z,0
2017-02-10T05:07:49.545Z,0
2017-02-10T05:09:00.213Z,0
2017-02-10T05:10:10.484Z,0
2017-02-10T05:11:21.149Z,0
2017-02-10T05:12:31.811Z,0
2017-02-10T05:13:42.482Z,0
2017-02-10T05:14:53.149Z,0
2017-02-10T05:16:03.814Z,0
2017-02-10T05:17:14.083Z,0
2017-02-10T05:18:24.750Z,0
2017-02-10T05:19:35.416Z,0
2017-02-10T05:20:46.077Z,0
2017-02-10T05:21:56.341Z,0
2017-02-10T05:23:06.604Z,0
2017-02-10T05:24:17.262Z,0
2017-02-10T05:25:27.924Z,0
2017-02-10T05:26:38.583Z,0
2017-02-10T05:27:49.249Z,0
2017-02-10T05:28:59.522Z,0
2017-02-10T05:30:10.189Z,0
2017-02-10T05:31:20.863Z,0
2017-02-10T05:32:31.551Z,0
2017-02-10T05:33:42.230Z,0
2017-02-10T05:34:52.891Z,0
2017-02-10T05:36:03.564Z,0
2017-02-10T05:37:14.229Z,0
2017-02-10T05:38:24.888Z,0
2017-02-10T05:39:35.555Z,0
2017-02-10T05:40:46.219Z,0
2017-02-10T05:41:56.487Z,0
2017-02-10T05:43:06.754Z,0
2017-02-10T05:44:17.021Z,0
2017-02-10T05:45:27.693Z,0
2017-02-10T05:46:38.358Z,0
2017-02-10T05:47:49.026Z,0
2017-02-10T05:48:59.689Z,0
2017-02-10T05:50:09.957Z,0
2017-02-10T05:51:20.230Z,0
2017-02-10T05:52:30.896Z,0
2017-02-10T05:53:41.558Z,0
2017-02-10T05:54:52.222Z,0
2017-02-10T05:56:02.886Z,0
2017-02-10T05:57:13.150Z,0
2017-02-10T05:58:23.811Z,0
2017-02-10T05:59:34.478Z,0
2017-02-10T06:00:45.146Z,0
2017-02-10T06:01:55.814Z,0
2017-02-10T06:03:06.487Z,0
2017-02-10T06:04:17.153Z,0
2017-02-10T06:05:27.824Z,0
2017-02-10T06:06:38.493Z,0
2017-02-10T06:07:49.158Z,0
2017-02-10T06:08:59.823Z,0
2017-02-10T06:10:10.092Z,0
2017-02-10T06:11:20.757Z,0
2017-02-10T06:12:31.419Z,0
2017-02-10T06:13:42.090Z,0
2017-02-10T06:14:52.752Z,0
2017-02-10T06:16:03.415Z,0
2017-02-10T06:17:14.083Z,0
2017-02-10T06:18:24.752Z,0
2017-02-10T06:19:35.430Z,0
2017-02-10T06:20:46.102Z,0
2017-02-10T06:21:56.774Z,0
2017-02-10T06:23:07.440Z,0
2017-02-10T06:24:17.708Z,0
2017-02-10T06:25:28.376Z,0
2017-02-10T06:26:39.040Z,0
2017-02-10T06:27:49.710Z,0
2017-02-10T06:29:00.379Z,0
2017-02-10T06:30:11.054Z,4
2017-02-10T06:31:21.722Z,4
2017-02-10T06:32:32.389Z,0
2017-02-10T06:33:43.050Z,0
2017-02-10T06:34:53.716Z,4
2017-02-10T06:36:04.377Z,4
2017-02-10T06:37:14.649Z,4
2017-02-10T06:38:25.314Z,4
2017-02-10T06:39:35.978Z,4
2017-02-10T06:40:46.642Z,8
2017-02-10T06:41:57.309Z,4
2017-02-10T06:43:07.977Z,8
2017-02-10T06:44:18.251Z,8
2017-02-10T06:45:28.908Z,8
2017-02-10T06:46:39.568Z,12
2017-02-10T06:47:50.227Z,12
2017-02-10T06:49:00.899Z,16
2017-02-10T06:50:11.195Z,16
2017-02-10T06:51:21.875Z,24
2017-02-10T06:52:32.542Z,24
2017-02-10T06:53:43.210Z,28
2017-02-10T06:54:53.879Z,32
2017-02-10T06:56:04.547Z,36
2017-02-10T06:57:15.221Z,40
2017-02-10T06:58:25.882Z,44
2017-02-10T06:59:36.550Z,52
2017-02-10T07:00:47.220Z,56
2017-02-10T07:01:57.884Z,60
2017-02-10T07:03:08.556Z,64
2017-02-10T07:04:18.825Z,72
2017-02-10T07:05:29.492Z,80
2017-02-10T07:06:40.163Z,88
2017-02-10T07:07:50.830Z,100
2017-02-10T07:09:01.496Z,112
2017-02-10T07:10:12.178Z,128
2017-02-10T07:11:22.849Z,140
2017-02-10T07:12:33.514Z,148
2017-02-10T07:13:44.181Z,164
2017-02-10T07:14:54.854Z,176
2017-02-10T07:16:05.535Z,192
2017-02-10T07:17:16.204Z,204
2017-02-10T07:18:26.879Z,224
2017-02-10T07:19:37.542Z,240
2017-02-10T07:20:48.206Z,260
2017-02-10T07:21:58.872Z,276
2017-02-10T07:23:09.540Z,292
2017-02-10T07:24:20.203Z,304
2017-02-10T07:25:30.480Z,320
2017-02-10T07:26:41.149Z,340
2017-02-10T07:27:51.828Z,360
2017-02-10T07:29:02.103Z,368
2017-02-10T07:30:11.974Z,376
2017-02-10T07:31:22.243Z,392
2017-02-10T07:32:32.908Z,412
2017-02-10T07:33:43.573Z,416
2017-02-10T07:34:54.236Z,436
2017-02-10T07:36:04.907Z,452
2017-02-10T07:37:14.780Z,472
2017-02-10T07:38:25.449Z,492
2017-02-10T07:39:36.119Z,516
2017-02-10T07:40:46.780Z,516
2017-02-10T07:41:57.047Z,528
2017-02-10T07:43:07.709Z,536
2017-02-10T07:44:18.377Z,548
2017-02-10T07:45:29.044Z,540
2017-02-10T07:46:39.711Z,536
2017-02-10T07:47:50.376Z,548
2017-02-10T07:49:01.043Z,580
2017-02-10T07:50:11.717Z,632
2017-02-10T07:51:22.384Z,680
2017-02-10T07:52:33.049Z,700
2017-02-10T07:53:43.730Z,724
2017-02-10T07:54:54.395Z,756
2017-02-10T07:56:05.068Z,788
2017-02-10T07:57:15.356Z,820
2017-02-10T07:58:26.027Z,856
2017-02-10T07:59:36.696Z,884
2017-02-10T08:00:47.362Z,908
2017-02-10T08:01:58.030Z,928
2017-02-10T08:03:08.695Z,964
2017-02-10T08:04:18.967Z,1000
2017-02-10T08:05:29.635Z,1040
2017-02-10T08:06:40.293Z,1088
2017-02-10T08:07:50.994Z,1136
2017-02-10T08:09:01.663Z,1164
2017-02-10T08:10:12.337Z,1200
2017-02-10T08:11:23.004Z,1232
2017-02-10T08:12:33.675Z,1252
2017-02-10T08:13:44.352Z,1260
2017-02-10T08:14:54.616Z,1264
2017-02-10T08:16:05.282Z,1272
2017-02-10T08:17:15.548Z,1276
2017-02-10T08:18:26.211Z,1308
2017-02-10T08:19:36.878Z,1348
2017-02-10T08:20:47.545Z,1416
2017-02-10T08:21:58.207Z,1452
2017-02-10T08:23:08.936Z,1476
2017-02-10T08:24:19.205Z,1480
2017-02-10T08:25:29.878Z,1524
2017-02-10T08:26:40.546Z,1548
2017-02-10T08:27:51.209Z,1576
2017-02-10T08:29:01.876Z,1588
2017-02-10T08:30:12.156Z,1624
2017-02-10T08:31:22.454Z,1652
2017-02-10T08:32:33.157Z,1668
2017-02-10T08:33:43.844Z,1668
2017-02-10T08:34:54.526Z,1668
2017-02-10T08:36:04.799Z,1712
2017-02-10T08:37:15.066Z,1740
2017-02-10T08:38:25.795Z,1756
2017-02-10T08:39:36.471Z,1700
2017-02-10T08:40:47.134Z,1660
2017-02-10T08:41:57.805Z,1668
2017-02-10T08:43:08.471Z,1568
2017-02-10T08:44:19.140Z,1596
2017-02-10T08:45:29.817Z,1592
2017-02-10T08:46:40.484Z,1472
2017-02-10T08:47:51.149Z,1464
2017-02-10T08:49:01.817Z,1456
2017-02-10T08:50:12.094Z,1516
2017-02-10T08:51:22.761Z,1564
2017-02-10T08:52:33.433Z,1540
2017-02-10T08:53:44.096Z,1412
2017-02-10T08:54:54.760Z,1408
2017-02-10T08:56:05.424Z,1416
2017-02-10T08:57:15.304Z,1360
2017-02-10T08:58:25.969Z,1324
2017-02-10T08:59:36.242Z,1328
2017-02-10T09:00:46.911Z,1344
2017-02-10T09:01:57.183Z,1380
2017-02-10T09:03:07.854Z,1420
2017-02-10T09:04:18.517Z,1460
2017-02-10T09:05:29.179Z,1496
2017-02-10T09:06:39.851Z,1480
2017-02-10T09:07:50.517Z,1492
2017-02-10T09:09:01.182Z,1484
2017-02-10T09:10:11.848Z,1520
2017-02-10T09:11:22.517Z,1580
2017-02-10T09:12:32.785Z,1640
2017-02-10T09:13:43.460Z,1600
2017-02-10T09:14:54.128Z,1612
2017-02-10T09:16:04.793Z,1620
2017-02-10T09:17:15.081Z,1636
2017-02-10T09:18:25.774Z,1680
2017-02-10T09:19:36.445Z,1708
2017-02-10T09:20:47.115Z,1712
2017-02-10T09:21:56.993Z,1712
2017-02-10T09:23:07.660Z,1740
2017-02-10T09:24:17.530Z,1796
2017-02-10T09:25:28.196Z,1840
2017-02-10T09:26:38.866Z,1884
2017-02-10T09:27:49.531Z,1936
2017-02-10T09:28:59.796Z,2032
2017-02-10T09:30:10.058Z,2116
2017-02-10T09:31:20.326Z,2152
2017-02-10T09:32:31.023Z,2220
2017-02-10T09:33:41.695Z,2288
2017-02-10T09:34:52.404Z,2356
2017-02-10T09:36:03.096Z,2388
2017-02-10T09:37:13.768Z,2380
2017-02-10T09:38:24.435Z,2440
2017-02-10T09:39:35.103Z,2500
2017-02-10T09:40:45.784Z,2532
2017-02-10T09:41:56.457Z,2532
2017-02-10T09:43:07.134Z,2436
2017-02-10T09:44:17.407Z,2384
2017-02-10T09:45:28.085Z,2372
2017-02-10T09:46:38.758Z,2412
2017-02-10T09:47:49.419Z,2456
2017-02-10T09:49:00.085Z,2508
2017-02-10T09:50:10.366Z,2408
2017-02-10T09:51:20.632Z,2444
2017-02-10T09:52:31.299Z,2448
2017-02-10T09:53:41.962Z,2436
2017-02-10T09:54:52.630Z,2388
2017-02-10T09:56:03.299Z,2416
2017-02-10T09:57:13.967Z,2360
2017-02-10T09:58:24.233Z,2328
2017-02-10T09:59:34.103Z,2276
2017-02-10T10:00:44.768Z,2204
2017-02-10T10:01:55.437Z,2096
2017-02-10T10:03:06.112Z,2052
2017-02-10T10:04:16.794Z,2128
2017-02-10T10:05:27.462Z,2176
2017-02-10T10:06:38.132Z,2204
2017-02-10T10:07:48.802Z,2184
2017-02-10T10:08:59.465Z,2056
2017-02-10T10:10:10.137Z,2056
2017-02-10T10:11:20.007Z,2092
2017-02-10T10:12:30.679Z,2172
2017-02-10T10:13:41.342Z,2176
2017-02-10T10:14:52.010Z,2224
2017-02-10T10:16:02.676Z,2280
2017-02-10T10:17:13.340Z,2328
2017-02-10T10:18:24.007Z,2372
2017-02-10T10:19:34.670Z,2468
2017-02-10T10:20:45.334Z,2576
2017-02-10T10:21:56.002Z,2728
2017-02-10T10:23:06.673Z,2784
2017-02-10T10:24:16.943Z,2808
2017-02-10T10:25:27.608Z,2840
2017-02-10T10:26:38.277Z,2844
2017-02-10T10:27:48.944Z,2864
2017-02-10T10:28:59.611Z,2924
2017-02-10T10:30:09.881Z,2988
2017-02-10T10:31:20.147Z,3120
2017-02-10T10:32:30.811Z,3180
2017-02-10T10:33:41.477Z,3340
2017-02-10T10:34:52.142Z,3460
2017-02-10T10:36:02.804Z,3548
2017-02-10T10:37:13.469Z,3664
2017-02-10T10:38:24.174Z,3736
2017-02-10T10:39:34.447Z,3832
2017-02-10T10:40:45.108Z,3860
2017-02-10T10:41:55.779Z,3904
2017-02-10T10:43:06.446Z,3912
2017-02-10T10:44:16.326Z,4072
2017-02-10T10:45:26.993Z,4356
2017-02-10T10:46:37.662Z,4520
2017-02-10T10:47:48.332Z,4516
2017-02-10T10:48:59.005Z,4404
2017-02-10T10:50:09.283Z,4440
2017-02-10T10:51:19.562Z,4556
2017-02-10T10:52:30.236Z,4484
2017-02-10T10:53:40.918Z,4440
2017-02-10T10:54:51.585Z,4424
2017-02-10T10:56:02.249Z,4408
2017-02-10T10:57:12.919Z,4500
2017-02-10T10:58:23.586Z,4456
2017-02-10T10:59:34.254Z,4528
2017-02-10T11:00:44.946Z,4556
2017-02-10T11:01:55.614Z,4468
2017-02-10T11:03:06.298Z,4504
2017-02-10T11:04:16.970Z,4440
2017-02-10T11:05:27.648Z,4156
2017-02-10T11:06:38.324Z,3948
2017-02-10T11:07:48.995Z,3872
2017-02-10T11:08:59.674Z,3788
2017-02-10T11:10:10.358Z,3604
2017-02-10T11:11:20.629Z,3408
2017-02-10T11:12:31.299Z,3360
2017-02-10T11:13:41.574Z,3432
2017-02-10T11:14:52.242Z,3492
2017-02-10T11:16:02.913Z,3556
2017-02-10T11:17:13.607Z,3680
2017-02-10T11:18:24.297Z,3836
2017-02-10T11:19:34.967Z,4004
2017-02-10T11:20:45.635Z,4028
2017-02-10T11:21:56.306Z,4056
2017-02-10T11:23:06.974Z,4072
2017-02-10T11:24:17.243Z,3940
2017-02-10T11:25:27.911Z,3884
2017-02-10T11:26:38.588Z,3980
2017-02-10T11:27:49.256Z,4068
2017-02-10T11:28:59.927Z,4268
2017-02-10T11:30:10.200Z,4248
2017-02-10T11:31:20.474Z,4164
2017-02-10T11:32:31.141Z,4200
2017-02-10T11:33:41.808Z,4236
2017-02-10T11:34:52.481Z,4268
2017-02-10T11:36:03.160Z,4212
2017-02-10T11:37:13.828Z,4076
2017-02-10T11:38:24.100Z,4000
2017-02-10T11:39:34.776Z,3988
2017-02-10T11:40:45.451Z,4000
2017-02-10T11:41:56.121Z,4056
2017-02-10T11:43:06.788Z,4120
2017-02-10T11:44:17.061Z,4144
2017-02-10T11:45:27.725Z,4228
2017-02-10T11:46:38.393Z,4308
2017-02-10T11:47:49.059Z,4372
2017-02-10T11:48:59.728Z,4484
2017-02-10T11:50:10.395Z,4708
2017-02-10T11:51:20.663Z,4704
2017-02-10T11:52:31.337Z,4728
2017-02-10T11:53:41.611Z,4856
2017-02-10T11:54:52.285Z,4788
2017-02-10T11:56:02.950Z,4724
2017-02-10T11:57:13.648Z,4880
2017-02-10T11:58:23.922Z,4908
2017-02-10T11:59:34.596Z,4916
2017-02-10T12:00:45.263Z,4984
2017-02-10T12:01:55.932Z,4820
2017-02-10T12:03:06.614Z,4868
2017-02-10T12:04:16.886Z,4920
2017-02-10T12:05:27.153Z,4864
2017-02-10T12:06:37.820Z,4972
2017-02-10T12:07:48.489Z,5000
2017-02-10T12:08:59.156Z,5004
2017-02-10T12:10:09.827Z,4980
2017-02-10T12:11:20.106Z,4852
2017-02-10T12:12:30.776Z,4872
2017-02-10T12:13:41.056Z,4768
2017-02-10T12:14:51.728Z,4712
2017-02-10T12:16:02.437Z,4596
2017-02-10T12:17:12.716Z,4412
2017-02-10T12:18:23.410Z,4360
2017-02-10T12:19:34.084Z,4380
2017-02-10T12:20:44.761Z,4280
2017-02-10T12:21:55.073Z,4320
2017-02-10T12:23:05.750Z,4432
2017-02-10T12:24:16.419Z,4424
2017-02-10T12:25:27.096Z,4384
2017-02-10T12:26:37.769Z,4408
2017-02-10T12:27:48.430Z,4356
2017-02-10T12:28:59.101Z,4284
2017-02-10T12:30:08.972Z,4456
2017-02-10T12:31:19.242Z,4508
2017-02-10T12:32:29.909Z,4468
2017-02-10T12:33:40.569Z,4412
2017-02-10T12:34:51.238Z,4352
2017-02-10T12:36:01.915Z,4312
2017-02-10T12:37:12.188Z,4272
2017-02-10T12:38:22.872Z,4300
2017-02-10T12:39:33.552Z,4308
2017-02-10T12:40:44.222Z,4368
2017-02-10T12:41:54.892Z,4356
2017-02-10T12:43:05.567Z,4212
2017-02-10T12:44:16.246Z,4324
2017-02-10T12:45:26.919Z,4368
2017-02-10T12:46:37.599Z,4272
2017-02-10T12:47:48.271Z,4276
2017-02-10T12:48:58.948Z,4304
2017-02-10T12:50:09.615Z,4356
2017-02-10T12:51:20.286Z,4440
2017-02-10T12:52:30.950Z,4492
2017-02-10T12:53:41.224Z,4412
2017-02-10T12:54:51.896Z,4424
2017-02-10T12:56:02.564Z,4524
2017-02-10T12:57:13.242Z,4584
2017-02-10T12:58:23.907Z,4616
2017-02-10T12:59:34.572Z,4848
2017-02-10T13:00:45.248Z,5120
2017-02-10T13:01:55.912Z,5200
2017-02-10T13:03:06.621Z,5188
2017-02-10T13:04:17.288Z,5100
2017-02-10T13:06:59.725Z,5004
2017-02-10T13:08:09.999Z,4948
2017-02-10T13:09:20.671Z,4772
2017-02-10T13:10:31.346Z,4496
2017-02-10T13:11:41.614Z,4256
2017-02-10T13:12:52.289Z,4132
2017-02-10T13:14:02.961Z,3960
2017-02-10T13:15:13.242Z,3968
2017-02-10T13:16:23.907Z,4052
2017-02-10T13:17:34.575Z,4100
2017-02-10T13:18:45.243Z,4044
2017-02-10T13:19:55.910Z,4072
2017-02-10T13:21:06.580Z,4172
2017-02-10T13:22:17.241Z,4220
2017-02-10T13:23:27.917Z,4160
2017-02-10T13:24:38.586Z,4004
2017-02-10T13:25:49.255Z,3832
2017-02-10T13:26:59.924Z,3804
2017-02-10T13:28:10.206Z,3884
2017-02-10T13:29:20.483Z,4044
2017-02-10T13:30:31.154Z,4076
2017-02-10T13:31:41.820Z,3924
2017-02-10T13:32:52.515Z,3840
2017-02-10T13:34:03.200Z,3872
2017-02-10T13:35:13.889Z,4060
2017-02-10T13:36:24.566Z,4180
2017-02-10T13:37:35.276Z,4056
2017-02-10T13:38:45.948Z,3848
2017-02-10T13:39:56.625Z,3648
2017-02-10T13:41:07.301Z,3452
2017-02-10T13:42:18.010Z,3360
2017-02-10T13:43:28.677Z,3424
2017-02-10T13:44:39.390Z,3472
2017-02-10T13:45:50.062Z,3520
2017-02-10T13:47:00.730Z,3392
2017-02-10T13:48:11.404Z,3400
2017-02-10T13:49:21.678Z,3376
2017-02-10T13:50:32.425Z,3360
2017-02-10T13:51:43.102Z,3276
2017-02-10T13:52:53.811Z,3256
2017-02-10T13:54:04.482Z,3300
2017-02-10T13:55:15.152Z,3352
2017-02-10T13:56:25.820Z,3656
2017-02-10T13:57:36.491Z,3832
2017-02-10T13:58:47.195Z,3840
2017-02-10T13:59:57.860Z,3828
2017-02-10T14:01:08.135Z,3804
2017-02-10T14:02:18.800Z,3828
2017-02-10T14:03:29.073Z,3764
2017-02-10T14:04:39.742Z,3640
2017-02-10T14:05:50.419Z,3648
2017-02-10T14:07:01.092Z,3564
2017-02-10T14:08:11.760Z,3460
2017-02-10T14:09:22.436Z,3364
2017-02-10T14:10:33.207Z,3204
2017-02-10T14:11:43.491Z,3084
2017-02-10T14:12:54.164Z,2984
2017-02-10T14:14:04.829Z,2948
2017-02-10T14:15:14.711Z,2960
2017-02-10T14:16:25.378Z,2988
2017-02-10T14:17:36.045Z,2992
2017-02-10T14:18:46.715Z,2984
2017-02-10T14:19:57.385Z,2892
2017-02-10T14:21:08.077Z,2796
2017-02-10T14:22:18.746Z,2796
2017-02-10T14:23:29.425Z,2760
2017-02-10T14:24:40.097Z,2620
2017-02-10T14:25:50.767Z,2480
2017-02-10T14:27:01.443Z,2448
2017-02-10T14:28:12.109Z,2372
2017-02-10T14:29:22.773Z,2260
2017-02-10T14:30:33.442Z,2108
2017-02-10T14:31:44.111Z,2020
2017-02-10T14:32:54.779Z,1960
2017-02-10T14:34:05.450Z,1856
2017-02-10T14:35:15.728Z,1708
2017-02-10T14:36:26.399Z,1592
2017-02-10T14:37:37.075Z,1512
2017-02-10T14:38:47.383Z,1444
2017-02-10T14:39:58.048Z,1384
2017-02-10T14:41:08.716Z,1340
2017-02-10T14:42:18.989Z,1316
2017-02-10T14:43:29.658Z,1332
2017-02-10T14:44:40.325Z,1328
2017-02-10T14:45:51.000Z,1304
2017-02-10T14:47:01.666Z,1344
2017-02-10T14:48:12.340Z,1344
2017-02-10T14:49:22.607Z,1312
2017-02-10T14:50:33.271Z,1276
2017-02-10T14:51:43.545Z,1244
2017-02-10T14:52:54.212Z,1200
2017-02-10T14:54:04.883Z,1136
2017-02-10T14:55:15.584Z,1140
2017-02-10T14:56:26.244Z,1128
2017-02-10T14:57:36.908Z,1104
2017-02-10T14:58:47.573Z,1056
2017-02-10T14:59:58.239Z,1004
2017-02-10T15:01:08.942Z,968
2017-02-10T15:02:19.652Z,900
2017-02-10T15:03:29.552Z,840
2017-02-10T15:04:40.211Z,788
2017-02-10T15:05:50.874Z,760
2017-02-10T15:07:01.550Z,740
2017-02-10T15:08:12.223Z,708
2017-02-10T15:09:22.892Z,696
2017-02-10T15:10:33.569Z,684
2017-02-10T15:11:44.236Z,668
2017-02-10T15:12:54.906Z,652
2017-02-10T15:14:05.576Z,628
2017-02-10T15:15:16.243Z,584
2017-02-10T15:16:26.917Z,556
2017-02-10T15:17:37.585Z,520
2017-02-10T15:18:47.860Z,508
2017-02-10T15:19:58.527Z,496
2017-02-10T15:21:09.197Z,472
2017-02-10T15:22:19.461Z,464
2017-02-10T15:23:30.133Z,452
2017-02-10T15:24:40.806Z,420
2017-02-10T15:25:51.468Z,404
2017-02-10T15:27:02.142Z,408
2017-02-10T15:28:12.814Z,396
2017-02-10T15:29:23.481Z,376
2017-02-10T15:30:34.148Z,360
2017-02-10T15:31:44.820Z,344
2017-02-10T15:32:55.485Z,328
2017-02-10T15:34:06.162Z,316
2017-02-10T15:35:16.835Z,304
2017-02-10T15:36:27.497Z,296
2017-02-10T15:37:38.164Z,284
2017-02-10T15:38:48.835Z,268
2017-02-10T15:39:59.506Z,248
2017-02-10T15:41:09.776Z,232
2017-02-10T15:42:20.443Z,216
2017-02-10T15:43:31.109Z,192
2017-02-10T15:44:41.769Z,172
2017-02-10T15:45:52.437Z,156
2017-02-10T15:47:03.101Z,144
2017-02-10T15:48:13.774Z,132
2017-02-10T15:49:24.440Z,124
2017-02-10T15:50:35.106Z,116
2017-02-10T15:51:45.770Z,108
2017-02-10T15:52:56.076Z,100
2017-02-10T15:54:06.749Z,88
2017-02-10T15:55:17.420Z,80
2017-02-10T15:56:28.082Z,72
2017-02-10T15:57:38.748Z,68
2017-02-10T15:58:49.415Z,60
2017-02-10T16:00:00.085Z,56
2017-02-10T16:01:10.755Z,48
2017-02-10T16:02:21.423Z,44
2017-02-10T16:03:32.096Z,40
2017-02-10T16:04:42.761Z,32
2017-02-10T16:05:53.033Z,32
2017-02-10T16:07:03.699Z,28
2017-02-10T16:08:14.368Z,24
2017-02-10T16:09:25.032Z,20
2017-02-10T16:10:35.301Z,20
2017-02-10T16:11:45.967Z,16
2017-02-10T16:12:56.659Z,12
2017-02-10T16:14:07.331Z,12
2017-02-10T16:15:17.999Z,12
2017-02-10T16:16:28.667Z,8
2017-02-10T16:17:39.336Z,8
2017-02-10T16:18:50.008Z,4
2017-02-10T16:20:00.727Z,8
2017-02-10T16:21:11.402Z,4
2017-02-10T16:22:22.072Z,4
2017-02-10T16:23:32.743Z,4
2017-02-10T16:24:43.411Z,0
2017-02-10T16:25:54.081Z,4
2017-02-10T16:27:04.844Z,4
2017-02-10T16:28:15.122Z,4
2017-02-10T16:29:25.791Z,0